Time;durP1;ratioP1;P1;durP2;ratioP2;P2;SDS_P1;SDS_P2;PMS_P1;PMS_P2;Temp;Humidity;BMP_temperature;BMP_pressure;BME280_temperature;BME280_humidity;BME280_pressure;Samples;Min_cycle;Max_cycle;Signal;HPM_P1;HPM_P2
2021/12/31 00:00:02;;;;;;;4.20;2.50;;;;;;;;;;5012961;28;20062;-64
2021/12/31 00:02:29;;;;;;;6.00;3.20;;;;;;;;;;5010832;28;20039;-62
2021/12/31 00:04:56;;;;;;;6.68;3.08;;;;;;;;;;4983683;28;20052;-62
2021/12/31 00:07:23;;;;;;;10.30;4.35;;;;;;;;;;4975635;28;20566;-62
2021/12/31 00:09:51;;;;;;;4.60;2.05;;;;;;;;;;4975664;28;20062;-62
2021/12/31 00:12:18;;;;;;;2.67;1.25;;;;;;;;;;4975679;28;20138;-61
2021/12/31 00:14:45;;;;;;;4.10;1.50;;;;;;;;;;4975454;28;20042;-62
2021/12/31 00:17:12;;;;;;;3.95;1.80;;;;;;;;;;4975364;28;20047;-62
2021/12/31 00:19:44;;;;;;;3.08;1.35;;;;;;;;;;4975337;28;20073;-60
2021/12/31 00:22:35;;;;;;;3.00;1.35;;;;;;;;;;4975732;28;20141;-61
2021/12/31 00:25:04;;;;;;;3.00;1.42;;;;;;;;;;4975134;28;20112;-61
2021/12/31 00:27:31;;;;;;;2.20;1.00;;;;;;;;;;4975079;28;20124;-60
2021/12/31 00:29:58;;;;;;;2.47;1.23;;;;;;;;;;4975381;28;20054;-62
2021/12/31 00:32:25;;;;;;;2.58;1.33;;;;;;;;;;4975159;28;20086;-61
2021/12/31 00:34:52;;;;;;;3.03;1.20;;;;;;;;;;4975096;28;20243;-61
2021/12/31 00:37:27;;;;;;;4.50;1.40;;;;;;;;;;4975028;28;20046;-62
2021/12/31 00:39:54;;;;;;;2.75;1.10;;;;;;;;;;4975083;28;20459;-59
2021/12/31 00:42:22;;;;;;;2.15;1.00;;;;;;;;;;4975204;28;20488;-61
2021/12/31 00:44:49;;;;;;;2.80;1.15;;;;;;;;;;4975076;28;20046;-64
2021/12/31 00:47:16;;;;;;;2.38;1.10;;;;;;;;;;4974938;28;20050;-60
2021/12/31 00:49:43;;;;;;;2.15;1.00;;;;;;;;;;4974690;28;20053;-63
2021/12/31 00:52:10;;;;;;;3.30;1.40;;;;;;;;;;4974818;28;20250;-61
2021/12/31 00:54:38;;;;;;;2.45;1.10;;;;;;;;;;4974804;28;20042;-61
2021/12/31 00:57:06;;;;;;;1.95;1.00;;;;;;;;;;4974569;28;20101;-62
2021/12/31 00:59:35;;;;;;;2.25;0.90;;;;;;;;;;4974557;28;20471;-61
2021/12/31 01:02:04;;;;;;;1.90;1.02;;;;;;;;;;4974408;28;20051;-60
2021/12/31 01:04:32;;;;;;;2.28;1.20;;;;;;;;;;4974860;28;20137;-61
2021/12/31 01:06:59;;;;;;;2.72;1.10;;;;;;;;;;4974432;28;20050;-62
2021/12/31 01:09:26;;;;;;;2.13;1.02;;;;;;;;;;4974434;28;20088;-60
2021/12/31 01:11:54;;;;;;;1.67;0.90;;;;;;;;;;4974859;28;20073;-60
2021/12/31 01:14:31;;;;;;;2.15;1.00;;;;;;;;;;4974535;28;20131;-60
2021/12/31 01:17:03;;;;;;;2.13;1.05;;;;;;;;;;4974317;28;20047;-60
2021/12/31 01:19:46;;;;;;;1.65;1.00;;;;;;;;;;4974150;28;20047;-61
2021/12/31 01:22:14;;;;;;;1.98;0.90;;;;;;;;;;4973943;28;20058;-59
2021/12/31 01:24:41;;;;;;;1.90;0.98;;;;;;;;;;4974422;28;20058;-62
2021/12/31 01:27:08;;;;;;;2.05;0.90;;;;;;;;;;4974091;28;20047;-60
2021/12/31 01:29:35;;;;;;;2.20;0.90;;;;;;;;;;4974061;28;20042;-61
2021/12/31 01:32:04;;;;;;;2.33;1.00;;;;;;;;;;4973883;28;20069;-61
2021/12/31 01:34:31;;;;;;;4.03;1.10;;;;;;;;;;4974048;28;20055;-60
2021/12/31 01:36:59;;;;;;;2.58;1.10;;;;;;;;;;4973892;28;20485;-61
2021/12/31 01:39:26;;;;;;;2.03;1.00;;;;;;;;;;4973433;28;20266;-60
2021/12/31 01:41:55;;;;;;;1.73;0.88;;;;;;;;;;4973915;28;20054;-60
2021/12/31 01:44:23;;;;;;;2.60;1.15;;;;;;;;;;4974056;28;20073;-62
2021/12/31 01:46:54;;;;;;;2.42;1.08;;;;;;;;;;4974003;28;20062;-60
2021/12/31 01:49:27;;;;;;;1.85;1.10;;;;;;;;;;4973635;28;20141;-60
2021/12/31 01:51:54;;;;;;;1.67;0.95;;;;;;;;;;4973931;28;20053;-60
2021/12/31 01:54:21;;;;;;;2.58;1.00;;;;;;;;;;4973877;28;20090;-62
2021/12/31 01:56:50;;;;;;;2.03;0.90;;;;;;;;;;4973555;28;20054;-61
2021/12/31 01:59:17;;;;;;;3.05;1.23;;;;;;;;;;4973714;28;20428;-63
2021/12/31 02:01:45;;;;;;;2.00;0.90;;;;;;;;;;4973582;28;20415;-61
2021/12/31 02:04:12;;;;;;;2.30;0.98;;;;;;;;;;4973314;28;20058;-62
2021/12/31 02:06:41;;;;;;;2.08;1.08;;;;;;;;;;4973383;28;20053;-62
2021/12/31 02:09:08;;;;;;;1.58;0.93;;;;;;;;;;4973488;28;20051;-61
2021/12/31 02:11:35;;;;;;;2.35;0.80;;;;;;;;;;4973371;28;20043;-61
2021/12/31 02:14:03;;;;;;;2.53;1.00;;;;;;;;;;4973561;28;20058;-61
2021/12/31 02:16:32;;;;;;;2.08;0.90;;;;;;;;;;4973514;28;20459;-60
2021/12/31 02:18:59;;;;;;;3.50;0.90;;;;;;;;;;4973499;28;20054;-59
2021/12/31 02:21:27;;;;;;;1.27;0.70;;;;;;;;;;4973293;28;20050;-60
2021/12/31 02:24:02;;;;;;;2.17;1.00;;;;;;;;;;4973330;28;20522;-61
2021/12/31 02:26:29;;;;;;;3.22;1.60;;;;;;;;;;4973736;28;20051;-62
2021/12/31 02:28:55;;;;;;;1.92;1.10;;;;;;;;;;4973191;28;20463;-61
2021/12/31 02:31:22;;;;;;;3.83;0.90;;;;;;;;;;4973259;28;20058;-62
2021/12/31 02:33:50;;;;;;;2.72;1.17;;;;;;;;;;4973109;28;20516;-63
2021/12/31 02:36:19;;;;;;;2.72;1.15;;;;;;;;;;4973184;28;20074;-62
2021/12/31 02:38:47;;;;;;;3.22;1.15;;;;;;;;;;4973185;28;20106;-61
2021/12/31 02:41:14;;;;;;;2.47;1.20;;;;;;;;;;4973173;28;20128;-62
2021/12/31 02:43:41;;;;;;;2.30;1.17;;;;;;;;;;4973084;28;20057;-62
2021/12/31 02:46:08;;;;;;;2.30;1.00;;;;;;;;;;4973222;28;20290;-61
2021/12/31 02:48:35;;;;;;;2.53;1.02;;;;;;;;;;4972870;28;20042;-60
2021/12/31 02:51:03;;;;;;;2.08;0.98;;;;;;;;;;4975822;28;20047;-62
2021/12/31 02:53:33;;;;;;;2.03;1.00;;;;;;;;;;4977153;28;20436;-61
2021/12/31 02:56:04;;;;;;;2.55;1.02;;;;;;;;;;4976935;28;20053;-60
2021/12/31 02:58:32;;;;;;;1.35;0.80;;;;;;;;;;4976726;28;20051;-61
2021/12/31 03:01:00;;;;;;;2.30;1.02;;;;;;;;;;4976838;28;20053;-60
2021/12/31 03:03:28;;;;;;;2.00;1.10;;;;;;;;;;4976702;28;20051;-62
2021/12/31 03:05:56;;;;;;;1.73;1.00;;;;;;;;;;4976899;28;20043;-62
2021/12/31 03:08:26;;;;;;;1.67;1.00;;;;;;;;;;4976550;28;20338;-61
2021/12/31 03:10:54;;;;;;;2.67;1.40;;;;;;;;;;4976690;28;20408;-60
2021/12/31 03:13:23;;;;;;;2.38;0.95;;;;;;;;;;4976512;28;20518;-61
2021/12/31 03:15:52;;;;;;;2.35;1.10;;;;;;;;;;4976741;28;20054;-62
2021/12/31 03:18:19;;;;;;;2.33;1.10;;;;;;;;;;4976645;28;20043;-61
2021/12/31 03:20:57;;;;;;;2.17;1.27;;;;;;;;;;4976620;28;20046;-62
2021/12/31 03:23:24;;;;;;;2.30;1.20;;;;;;;;;;4976432;28;20102;-60
2021/12/31 03:25:51;;;;;;;3.13;1.10;;;;;;;;;;4976592;28;20224;-61
2021/12/31 03:28:19;;;;;;;2.88;1.10;;;;;;;;;;4976309;28;20134;-61
2021/12/31 03:30:47;;;;;;;2.42;1.23;;;;;;;;;;4976368;28;20053;-61
2021/12/31 03:33:15;;;;;;;2.63;1.30;;;;;;;;;;4976230;28;20055;-60
2021/12/31 03:35:42;;;;;;;2.75;1.20;;;;;;;;;;4976428;28;20059;-61
2021/12/31 03:38:09;;;;;;;2.30;1.42;;;;;;;;;;4976185;28;20507;-62
2021/12/31 03:40:36;;;;;;;2.97;1.40;;;;;;;;;;4976336;28;20567;-61
2021/12/31 03:43:03;;;;;;;2.33;1.33;;;;;;;;;;4976096;28;20046;-62
2021/12/31 03:45:31;;;;;;;2.67;1.30;;;;;;;;;;4976224;28;20054;-60
2021/12/31 03:47:59;;;;;;;3.75;1.40;;;;;;;;;;4976063;28;20143;-61
2021/12/31 03:50:26;;;;;;;3.55;1.35;;;;;;;;;;4975913;28;20076;-61
2021/12/31 03:52:53;;;;;;;2.95;1.48;;;;;;;;;;4975839;28;20051;-62
2021/12/31 03:55:21;;;;;;;3.00;1.20;;;;;;;;;;4975973;28;20057;-60
2021/12/31 03:57:48;;;;;;;3.78;1.70;;;;;;;;;;4975911;28;20512;-59
2021/12/31 04:00:16;;;;;;;4.05;1.50;;;;;;;;;;4975703;28;20053;-59
2021/12/31 04:02:43;;;;;;;2.45;1.33;;;;;;;;;;4975145;28;20047;-61
2021/12/31 04:05:11;;;;;;;3.22;1.45;;;;;;;;;;4975775;28;20484;-62
2021/12/31 04:07:39;;;;;;;2.83;1.52;;;;;;;;;;4975739;28;20053;-62
2021/12/31 04:10:06;;;;;;;2.55;1.30;;;;;;;;;;4975605;28;20050;-61
2021/12/31 04:12:33;;;;;;;3.15;1.20;;;;;;;;;;4975674;28;20515;-61
2021/12/31 04:15:00;;;;;;;3.55;1.50;;;;;;;;;;4975444;28;20042;-61
2021/12/31 04:17:27;;;;;;;2.80;1.52;;;;;;;;;;4975384;28;20385;-58
2021/12/31 04:19:56;;;;;;;2.92;1.70;;;;;;;;;;4975429;28;20496;-62
2021/12/31 04:22:27;;;;;;;2.80;1.58;;;;;;;;;;4975454;28;20058;-61
2021/12/31 04:24:54;;;;;;;3.83;1.73;;;;;;;;;;4975660;28;20062;-61
2021/12/31 04:27:22;;;;;;;3.33;1.70;;;;;;;;;;4975454;28;20053;-61
2021/12/31 04:29:52;;;;;;;3.83;1.67;;;;;;;;;;4975247;28;20050;-62
2021/12/31 04:32:21;;;;;;;3.45;1.80;;;;;;;;;;4975153;28;20101;-60
2021/12/31 04:34:48;;;;;;;2.63;1.60;;;;;;;;;;4975236;28;20047;-61
2021/12/31 04:37:15;;;;;;;2.90;1.55;;;;;;;;;;4975016;28;20046;-61
2021/12/31 04:39:43;;;;;;;3.45;1.58;;;;;;;;;;4975041;28;20492;-61
2021/12/31 04:42:11;;;;;;;4.00;1.75;;;;;;;;;;4974944;28;20051;-61
2021/12/31 04:44:38;;;;;;;3.28;1.50;;;;;;;;;;4974817;28;20051;-62
2021/12/31 04:47:05;;;;;;;3.72;1.80;;;;;;;;;;4974702;28;20235;-62
2021/12/31 04:49:32;;;;;;;3.00;1.60;;;;;;;;;;4974724;28;20488;-61
2021/12/31 04:51:59;;;;;;;3.80;1.90;;;;;;;;;;4974791;28;20057;-61
2021/12/31 04:54:26;;;;;;;3.20;1.60;;;;;;;;;;4974718;28;20051;-58
2021/12/31 04:56:56;;;;;;;4.57;1.63;;;;;;;;;;4974669;28;20054;-59
2021/12/31 04:59:23;;;;;;;3.25;1.80;;;;;;;;;;4974895;28;20491;-60
2021/12/31 05:01:50;;;;;;;3.75;1.77;;;;;;;;;;4974334;28;20054;-62
2021/12/31 05:04:17;;;;;;;3.28;1.80;;;;;;;;;;4974441;28;20043;-61
2021/12/31 05:06:47;;;;;;;3.70;1.80;;;;;;;;;;4974270;28;20055;-60
2021/12/31 05:09:14;;;;;;;5.72;2.20;;;;;;;;;;4974459;28;20050;-62
2021/12/31 05:11:41;;;;;;;3.25;1.83;;;;;;;;;;4974276;28;20527;-61
2021/12/31 05:14:10;;;;;;;3.70;2.08;;;;;;;;;;4973325;28;20062;-59
2021/12/31 05:16:37;;;;;;;3.30;1.90;;;;;;;;;;4974653;28;20144;-60
2021/12/31 05:19:04;;;;;;;3.05;1.77;;;;;;;;;;4974480;28;20043;-62
2021/12/31 05:21:32;;;;;;;4.43;2.17;;;;;;;;;;4974047;28;20071;-59
2021/12/31 05:24:00;;;;;;;3.60;1.65;;;;;;;;;;4974120;28;20444;-61
2021/12/31 05:26:27;;;;;;;3.97;1.90;;;;;;;;;;4974317;28;20427;-61
2021/12/31 05:28:54;;;;;;;3.85;1.80;;;;;;;;;;4974145;28;20081;-61
2021/12/31 05:31:23;;;;;;;5.05;2.25;;;;;;;;;;4974377;28;20050;-61
2021/12/31 05:33:50;;;;;;;2.85;1.67;;;;;;;;;;4974099;28;20070;-61
2021/12/31 05:36:17;;;;;;;3.58;1.90;;;;;;;;;;4973839;28;20051;-61
2021/12/31 05:38:45;;;;;;;3.63;2.03;;;;;;;;;;4974004;28;20051;-61
2021/12/31 05:41:12;;;;;;;3.40;1.75;;;;;;;;;;4973966;28;20054;-58
2021/12/31 05:43:39;;;;;;;3.40;1.75;;;;;;;;;;4973988;28;20504;-61
2021/12/31 05:46:06;;;;;;;2.95;1.63;;;;;;;;;;4973940;28;20404;-60
2021/12/31 05:48:35;;;;;;;3.00;1.50;;;;;;;;;;4973727;28;20409;-62
2021/12/31 05:51:03;;;;;;;3.47;1.52;;;;;;;;;;5001614;23;20525;-59
2021/12/31 05:53:30;;;;;;;2.55;1.50;;;;;;;;;;5013039;28;20522;-58
2021/12/31 05:55:57;;;;;;;3.10;1.65;;;;;;;;;;5012847;28;20053;-59
2021/12/31 05:58:25;;;;;;;3.95;1.77;;;;;;;;;;5012579;28;20054;-58
2021/12/31 06:00:52;;;;;;;3.13;1.77;;;;;;;;;;5012727;28;20046;-57
2021/12/31 06:03:19;;;;;;;4.03;1.80;;;;;;;;;;5012622;28;20054;-59
2021/12/31 06:05:47;;;;;;;3.25;1.65;;;;;;;;;;5012662;28;20208;-60
2021/12/31 06:08:14;;;;;;;3.17;1.58;;;;;;;;;;5012653;28;20046;-61
2021/12/31 06:10:42;;;;;;;3.25;1.67;;;;;;;;;;5012710;28;20058;-61
2021/12/31 06:13:11;;;;;;;2.97;1.73;;;;;;;;;;5012460;28;20053;-60
2021/12/31 06:15:41;;;;;;;3.10;1.60;;;;;;;;;;5012664;28;20057;-61
2021/12/31 06:18:08;;;;;;;4.43;1.80;;;;;;;;;;5013034;28;20060;-61
2021/12/31 06:20:35;;;;;;;3.22;1.58;;;;;;;;;;5012639;28;20280;-59
2021/12/31 06:23:04;;;;;;;4.57;1.83;;;;;;;;;;5012695;28;20049;-57
2021/12/31 06:25:31;;;;;;;3.22;1.60;;;;;;;;;;4996042;28;20058;-59
2021/12/31 06:27:59;;;;;;;4.40;1.63;;;;;;;;;;4990436;28;20056;-58
2021/12/31 06:30:26;;;;;;;2.97;1.63;;;;;;;;;;4991094;28;20415;-60
2021/12/31 06:32:53;;;;;;;2.92;1.58;;;;;;;;;;4990869;28;20047;-59
2021/12/31 06:35:20;;;;;;;43.40;33.92;;;;;;;;;;4991183;28;20053;-59
2021/12/31 06:37:48;;;;;;;94.18;78.90;;;;;;;;;;4990775;28;20050;-57
2021/12/31 06:40:16;;;;;;;4.80;2.50;;;;;;;;;;4991033;28;20058;-55
2021/12/31 06:42:43;;;;;;;31.38;24.88;;;;;;;;;;4990825;28;20050;-57
2021/12/31 06:45:10;;;;;;;97.50;76.20;;;;;;;;;;4990551;28;20491;-60
2021/12/31 06:47:37;;;;;;;8.18;4.53;;;;;;;;;;4990839;28;20060;-61
2021/12/31 06:50:05;;;;;;;4.28;2.10;;;;;;;;;;4990512;28;20419;-59
2021/12/31 06:52:37;;;;;;;4.25;1.73;;;;;;;;;;4989344;28;20373;-59
2021/12/31 06:55:05;;;;;;;15.05;6.75;;;;;;;;;;4971103;28;20083;-62
2021/12/31 06:57:33;;;;;;;5.00;2.42;;;;;;;;;;4971463;28;20050;-64
2021/12/31 07:00:00;;;;;;;3.50;2.08;;;;;;;;;;4971421;28;20071;-60
2021/12/31 07:02:27;;;;;;;2.72;1.33;;;;;;;;;;4971620;28;20497;-60
2021/12/31 07:04:54;;;;;;;3.65;1.40;;;;;;;;;;4971339;28;20419;-60
2021/12/31 07:07:21;;;;;;;2.60;1.17;;;;;;;;;;4971370;28;20142;-61
2021/12/31 07:09:48;;;;;;;3.50;1.75;;;;;;;;;;4971326;28;20548;-61
2021/12/31 07:12:15;;;;;;;4.40;1.58;;;;;;;;;;4971101;28;20051;-60
2021/12/31 07:14:43;;;;;;;2.95;1.60;;;;;;;;;;4971295;28;20090;-61
2021/12/31 07:17:11;;;;;;;2.40;1.38;;;;;;;;;;4971373;28;20431;-61
2021/12/31 07:19:38;;;;;;;3.75;1.60;;;;;;;;;;4971098;28;20101;-61
2021/12/31 07:22:05;;;;;;;3.13;1.42;;;;;;;;;;4971043;28;20058;-60
2021/12/31 07:24:32;;;;;;;3.38;1.63;;;;;;;;;;4971190;28;20050;-60
2021/12/31 07:26:58;;;;;;;3.58;1.42;;;;;;;;;;4971429;28;20389;-60
2021/12/31 07:29:25;;;;;;;4.78;1.50;;;;;;;;;;4970929;28;20046;-60
2021/12/31 07:31:54;;;;;;;4.45;1.75;;;;;;;;;;4970990;28;20062;-60
2021/12/31 07:34:21;;;;;;;3.38;1.80;;;;;;;;;;4970977;28;20049;-61
2021/12/31 07:36:47;;;;;;;4.10;1.73;;;;;;;;;;4971664;28;20059;-62
2021/12/31 07:39:15;;;;;;;2.92;1.50;;;;;;;;;;4974483;28;20492;-60
2021/12/31 07:41:42;;;;;;;2.60;1.45;;;;;;;;;;4974590;28;20050;-60
2021/12/31 07:44:09;;;;;;;2.97;1.73;;;;;;;;;;4974491;28;20419;-61
2021/12/31 07:46:35;;;;;;;4.60;1.75;;;;;;;;;;4974409;28;20043;-60
2021/12/31 07:49:04;;;;;;;3.28;1.70;;;;;;;;;;4974658;28;20373;-62
2021/12/31 07:51:31;;;;;;;2.88;1.73;;;;;;;;;;4974242;28;20505;-61
2021/12/31 07:53:58;;;;;;;3.22;1.88;;;;;;;;;;4974662;28;20054;-61
2021/12/31 07:56:25;;;;;;;3.70;1.58;;;;;;;;;;4974307;28;20047;-61
2021/12/31 07:58:52;;;;;;;4.28;1.70;;;;;;;;;;4974557;28;20050;-60
2021/12/31 08:01:19;;;;;;;3.30;1.80;;;;;;;;;;4974263;28;20047;-61
2021/12/31 08:03:46;;;;;;;2.92;1.60;;;;;;;;;;4973989;28;20620;-68
2021/12/31 08:06:14;;;;;;;3.22;1.75;;;;;;;;;;4974093;28;20075;-62
2021/12/31 08:08:41;;;;;;;4.22;2.47;;;;;;;;;;4974072;28;20051;-61
2021/12/31 08:11:08;;;;;;;3.72;1.77;;;;;;;;;;4973942;28;20350;-60
2021/12/31 08:13:35;;;;;;;2.72;1.50;;;;;;;;;;4973935;28;20049;-61
2021/12/31 08:16:02;;;;;;;2.58;1.30;;;;;;;;;;4973953;28;20054;-60
2021/12/31 08:18:29;;;;;;;3.55;1.80;;;;;;;;;;4974252;28;20408;-60
2021/12/31 08:20:56;;;;;;;3.25;1.63;;;;;;;;;;4973896;28;20050;-61
2021/12/31 08:23:24;;;;;;;2.95;1.50;;;;;;;;;;4973706;28;20519;-59
2021/12/31 08:25:52;;;;;;;3.05;1.60;;;;;;;;;;4973586;28;20058;-61
2021/12/31 08:28:19;;;;;;;2.85;1.70;;;;;;;;;;4973841;28;20142;-60
2021/12/31 08:30:46;;;;;;;2.65;1.20;;;;;;;;;;4973619;28;20101;-61
2021/12/31 08:33:13;;;;;;;3.42;1.52;;;;;;;;;;4973759;28;20050;-60
2021/12/31 08:35:40;;;;;;;2.65;1.30;;;;;;;;;;4973600;28;20057;-61
2021/12/31 08:38:07;;;;;;;4.57;1.85;;;;;;;;;;4973550;28;20061;-61
2021/12/31 08:40:36;;;;;;;2.92;1.60;;;;;;;;;;4973798;28;20412;-61
2021/12/31 08:43:03;;;;;;;2.95;1.40;;;;;;;;;;4973327;28;20081;-61
2021/12/31 08:45:30;;;;;;;2.95;1.48;;;;;;;;;;4973704;28;20055;-60
2021/12/31 08:47:58;;;;;;;2.45;1.52;;;;;;;;;;4973303;28;20424;-61
2021/12/31 08:50:26;;;;;;;3.50;1.60;;;;;;;;;;4973263;28;20047;-61
2021/12/31 08:52:53;;;;;;;4.10;1.70;;;;;;;;;;4973249;28;20070;-61
2021/12/31 08:55:21;;;;;;;3.75;1.80;;;;;;;;;;4973580;28;20047;-61
2021/12/31 08:57:49;;;;;;;2.40;1.40;;;;;;;;;;4973594;28;20054;-60
2021/12/31 09:00:17;;;;;;;2.92;1.52;;;;;;;;;;4973060;28;20126;-60
2021/12/31 09:02:46;;;;;;;3.53;1.40;;;;;;;;;;4973002;28;20054;-61
2021/12/31 09:05:13;;;;;;;3.60;1.73;;;;;;;;;;4972973;28;20097;-60
2021/12/31 09:07:40;;;;;;;3.42;1.67;;;;;;;;;;4973221;28;20492;-60
2021/12/31 09:10:09;;;;;;;3.33;1.80;;;;;;;;;;4973215;28;20456;-57
2021/12/31 09:12:36;;;;;;;3.15;1.58;;;;;;;;;;4972617;28;20049;-57
2021/12/31 09:15:06;;;;;;;3.25;1.73;;;;;;;;;;4972750;28;20075;-58
2021/12/31 09:17:33;;;;;;;3.17;1.53;;;;;;;;;;4972504;28;20059;-55
2021/12/31 09:20:00;;;;;;;3.58;1.80;;;;;;;;;;4972864;28;20304;-57
2021/12/31 09:22:27;;;;;;;3.00;1.50;;;;;;;;;;4972714;28;20046;-55
2021/12/31 09:24:54;;;;;;;3.05;1.65;;;;;;;;;;4972843;28;20114;-59
2021/12/31 09:27:21;;;;;;;3.97;1.33;;;;;;;;;;4972063;28;20050;-58
2021/12/31 09:29:49;;;;;;;3.38;1.77;;;;;;;;;;4972164;28;20055;-58
2021/12/31 09:32:17;;;;;;;2.38;1.40;;;;;;;;;;4972313;28;20066;-58
2021/12/31 09:34:46;;;;;;;3.85;1.60;;;;;;;;;;4972242;28;20055;-59
2021/12/31 09:37:13;;;;;;;3.45;1.55;;;;;;;;;;4972666;28;20472;-58
2021/12/31 09:39:41;;;;;;;2.80;1.58;;;;;;;;;;4972123;28;20046;-57
2021/12/31 09:42:09;;;;;;;2.70;1.30;;;;;;;;;;4974555;28;20054;-57
2021/12/31 09:44:37;;;;;;;2.35;1.40;;;;;;;;;;4991777;28;20444;-58
2021/12/31 09:47:09;;;;;;;3.75;1.63;;;;;;;;;;4985742;28;20053;-55
2021/12/31 09:49:39;;;;;;;13.20;7.18;;;;;;;;;;4991355;28;20367;-59
2021/12/31 09:52:09;;;;;;;6.00;2.40;;;;;;;;;;4991296;28;20061;-56
2021/12/31 09:54:36;;;;;;;3.25;1.67;;;;;;;;;;4992311;28;20058;-55
2021/12/31 09:57:04;;;;;;;3.67;1.52;;;;;;;;;;4991241;28;20054;-54
2021/12/31 09:59:31;;;;;;;2.83;1.38;;;;;;;;;;4990684;28;20145;-58
2021/12/31 10:01:59;;;;;;;3.42;1.60;;;;;;;;;;4991383;28;20163;-56
2021/12/31 10:04:53;;;;;;;3.22;1.30;;;;;;;;;;4991219;28;20060;-58
2021/12/31 10:07:23;;;;;;;2.53;1.20;;;;;;;;;;4990940;28;20082;-57
2021/12/31 10:10:05;;;;;;;4.00;1.43;;;;;;;;;;4991238;28;20068;-57
2021/12/31 10:12:44;;;;;;;3.42;1.50;;;;;;;;;;4971071;28;20785;-57
2021/12/31 10:15:11;;;;;;;1.85;1.10;;;;;;;;;;4971799;28;20515;-58
2021/12/31 10:17:39;;;;;;;2.00;1.00;;;;;;;;;;4970232;28;20488;-56
2021/12/31 10:20:08;;;;;;;2.72;1.30;;;;;;;;;;4970817;28;20046;-58
2021/12/31 10:22:35;;;;;;;2.45;1.20;;;;;;;;;;4971097;28;20054;-58
2021/12/31 10:25:02;;;;;;;2.85;1.00;;;;;;;;;;4971510;28;20416;-57
2021/12/31 10:27:29;;;;;;;2.85;1.65;;;;;;;;;;4971914;28;20138;-56
2021/12/31 10:29:58;;;;;;;3.20;1.30;;;;;;;;;;4971563;28;20134;-58
2021/12/31 10:32:27;;;;;;;4.13;1.30;;;;;;;;;;4971624;28;20072;-58
2021/12/31 10:34:54;;;;;;;3.08;1.38;;;;;;;;;;4971271;28;20051;-58
2021/12/31 10:37:23;;;;;;;2.15;1.15;;;;;;;;;;4971402;28;20053;-57
2021/12/31 10:39:56;;;;;;;3.20;1.33;;;;;;;;;;4971391;28;20133;-58
2021/12/31 10:42:28;;;;;;;3.10;1.50;;;;;;;;;;4971543;28;20437;-57
2021/12/31 10:44:57;;;;;;;2.85;1.40;;;;;;;;;;4971196;28;20051;-58
2021/12/31 10:47:28;;;;;;;3.58;1.30;;;;;;;;;;4971409;28;20054;-56
2021/12/31 10:50:14;;;;;;;2.15;1.08;;;;;;;;;;4971436;28;20069;-58
2021/12/31 10:52:52;;;;;;;3.00;1.40;;;;;;;;;;4970851;28;20143;-57
2021/12/31 10:55:23;;;;;;;2.35;1.10;;;;;;;;;;4971520;28;20054;-58
2021/12/31 10:57:52;;;;;;;5.10;1.77;;;;;;;;;;4971234;28;20063;-56
2021/12/31 11:00:20;;;;;;;2.17;0.95;;;;;;;;;;4971044;28;20046;-58
2021/12/31 11:02:48;;;;;;;3.05;1.13;;;;;;;;;;4971539;28;20051;-63
2021/12/31 11:05:17;;;;;;;1.25;0.80;;;;;;;;;;4971353;28;20110;-59
2021/12/31 11:07:46;;;;;;;3.50;1.13;;;;;;;;;;4971346;28;20053;-60
2021/12/31 11:10:14;;;;;;;3.20;1.35;;;;;;;;;;4971544;28;20484;-59
2021/12/31 11:12:45;;;;;;;3.50;1.27;;;;;;;;;;4973319;28;20051;-58
2021/12/31 11:15:12;;;;;;;3.13;1.33;;;;;;;;;;4975276;28;20054;-58
2021/12/31 11:17:39;;;;;;;3.15;1.55;;;;;;;;;;4974483;28;20046;-60
2021/12/31 11:20:09;;;;;;;1.08;0.70;;;;;;;;;;4974809;28;20054;-57
2021/12/31 11:22:36;;;;;;;2.10;1.17;;;;;;;;;;4974838;28;20047;-58
2021/12/31 11:25:28;;;;;;;2.42;0.73;;;;;;;;;;4974673;28;20066;-59
2021/12/31 11:27:56;;;;;;;1.27;0.68;;;;;;;;;;4974213;28;20420;-57
2021/12/31 11:30:29;;;;;;;1.70;0.80;;;;;;;;;;4974844;28;20050;-58
2021/12/31 11:32:59;;;;;;;1.05;0.60;;;;;;;;;;4974402;28;20070;-57
2021/12/31 11:35:35;;;;;;;2.65;1.48;;;;;;;;;;4974801;28;20051;-56
2021/12/31 11:38:04;;;;;;;1.60;0.80;;;;;;;;;;4974483;28;20157;-58
2021/12/31 11:40:35;;;;;;;2.72;0.82;;;;;;;;;;4974833;28;20078;-58
2021/12/31 11:43:14;;;;;;;;;;;;;;;;;;4973814;28;20077;-59
2021/12/31 11:45:41;;;;;;;0.98;0.60;;;;;;;;;;4974489;28;19972;-60
2021/12/31 11:48:41;;;;;;;3.78;2.05;;;;;;;;;;4973808;28;20055;-59
2021/12/31 11:51:10;;;;;;;5.68;2.35;;;;;;;;;;4974905;28;20480;-59
2021/12/31 11:54:21;;;;;;;2.72;1.00;;;;;;;;;;4974167;28;20058;-59
2021/12/31 11:57:05;;;;;;;2.90;1.05;;;;;;;;;;4974095;28;20134;-61
2021/12/31 11:59:47;;;;;;;2.55;1.10;;;;;;;;;;4974493;28;20490;-61
2021/12/31 12:02:18;;;;;;;3.20;1.20;;;;;;;;;;4974115;28;20051;-61
2021/12/31 12:05:05;;;;;;;2.05;1.30;;;;;;;;;;4974509;28;20162;-68
2021/12/31 12:07:35;;;;;;;6.85;2.90;;;;;;;;;;4973770;28;20051;-69
2021/12/31 12:10:37;;;;;;;2.95;1.20;;;;;;;;;;4974758;28;20101;-64
2021/12/31 12:13:26;;;;;;;5.88;2.83;;;;;;;;;;5004226;23;20045;-73
2021/12/31 12:15:53;;;;;;;3.35;1.38;;;;;;;;;;5012937;28;20052;-68
2021/12/31 12:18:52;;;;;;;4.95;2.58;;;;;;;;;;5012698;28;20050;-76
2021/12/31 12:21:37;;;;;;;6.05;2.72;;;;;;;;;;5012543;28;20050;-70
2021/12/31 12:24:06;;;;;;;3.65;1.20;;;;;;;;;;5011992;28;20127;-65
2021/12/31 12:26:34;;;;;;;6.63;3.35;;;;;;;;;;5012188;28;20136;-68
2021/12/31 12:29:02;;;;;;;6.60;3.10;;;;;;;;;;5012336;28;20060;-63
2021/12/31 12:31:34;;;;;;;2.63;1.20;;;;;;;;;;5012475;28;20097;-64
2021/12/31 12:34:01;;;;;;;5.80;2.10;;;;;;;;;;5012340;28;20531;-64
2021/12/31 12:36:28;;;;;;;5.65;2.10;;;;;;;;;;5012220;28;20578;-64
2021/12/31 12:39:05;;;;;;;5.28;1.40;;;;;;;;;;5012285;28;20487;-64
2021/12/31 12:41:32;;;;;;;5.35;1.83;;;;;;;;;;5012839;28;20057;-64
2021/12/31 12:44:00;;;;;;;4.72;2.00;;;;;;;;;;5011701;28;20061;-64
2021/12/31 12:46:30;;;;;;;6.15;3.25;;;;;;;;;;5011247;28;20065;-64
2021/12/31 12:48:58;;;;;;;4.40;1.50;;;;;;;;;;5012157;28;20058;-64
2021/12/31 12:51:30;;;;;;;4.28;1.90;;;;;;;;;;5012320;28;20054;-64
2021/12/31 12:53:58;;;;;;;5.88;2.00;;;;;;;;;;5011817;28;20053;-64
2021/12/31 12:56:25;;;;;;;5.32;2.65;;;;;;;;;;5012003;28;20049;-64
2021/12/31 12:58:54;;;;;;;7.32;2.85;;;;;;;;;;5011952;28;20058;-64
2021/12/31 13:01:33;;;;;;;4.68;2.00;;;;;;;;;;5012093;28;20710;-64
2021/12/31 13:04:00;;;;;;;7.13;3.22;;;;;;;;;;5011076;28;20326;-65
2021/12/31 13:06:28;;;;;;;8.07;3.50;;;;;;;;;;5011340;28;20263;-64
2021/12/31 13:09:03;;;;;;;8.02;3.45;;;;;;;;;;5011749;28;20050;-64
2021/12/31 13:11:31;;;;;;;7.50;3.40;;;;;;;;;;5011473;28;20049;-64
2021/12/31 13:13:59;;;;;;;6.53;3.10;;;;;;;;;;5011224;28;20358;-64
2021/12/31 13:16:26;;;;;;;6.72;2.67;;;;;;;;;;5010959;28;20141;-64
2021/12/31 13:18:58;;;;;;;8.35;3.53;;;;;;;;;;5011236;28;20180;-65
2021/12/31 13:21:25;;;;;;;9.43;4.18;;;;;;;;;;5011564;28;20103;-66
2021/12/31 13:23:53;;;;;;;7.65;2.88;;;;;;;;;;5011380;28;20325;-66
2021/12/31 13:26:22;;;;;;;9.23;3.70;;;;;;;;;;5011165;28;20490;-64
2021/12/31 13:28:51;;;;;;;10.43;4.82;;;;;;;;;;5011353;28;20423;-66
2021/12/31 13:31:33;;;;;;;6.68;3.15;;;;;;;;;;5010118;28;20053;-65
2021/12/31 13:34:11;;;;;;;10.80;4.93;;;;;;;;;;5010799;28;20054;-63
2021/12/31 13:36:45;;;;;;;8.95;4.15;;;;;;;;;;5011125;28;20085;-64
2021/12/31 13:39:14;;;;;;;7.15;3.10;;;;;;;;;;5011070;28;20046;-64
2021/12/31 13:41:50;;;;;;;6.75;2.55;;;;;;;;;;5010955;28;20499;-65
2021/12/31 13:44:22;;;;;;;8.02;4.80;;;;;;;;;;5011322;28;20054;-64
2021/12/31 13:46:58;;;;;;;9.13;4.25;;;;;;;;;;5011007;28;20491;-64
2021/12/31 13:49:26;;;;;;;3.63;1.48;;;;;;;;;;5011021;28;20499;-64
2021/12/31 13:51:53;;;;;;;3.88;1.30;;;;;;;;;;5010718;28;20054;-64
2021/12/31 13:54:34;;;;;;;5.45;1.95;;;;;;;;;;5010650;28;20048;-65
2021/12/31 13:57:01;;;;;;;4.72;2.13;;;;;;;;;;5010362;28;20050;-65
2021/12/31 13:59:36;;;;;;;4.65;1.50;;;;;;;;;;5010513;28;20046;-65
2021/12/31 14:02:12;;;;;;;3.00;1.40;;;;;;;;;;5010488;28;20247;-65
2021/12/31 14:05:11;;;;;;;2.42;1.08;;;;;;;;;;5011365;28;20076;-69
2021/12/31 14:07:43;;;;;;;4.40;1.45;;;;;;;;;;5010322;28;20049;-67
2021/12/31 14:10:13;;;;;;;6.20;2.08;;;;;;;;;;5010916;28;20473;-67
2021/12/31 14:12:57;;;;;;;5.82;2.05;;;;;;;;;;5010686;28;20503;-65
2021/12/31 14:15:27;;;;;;;7.78;3.97;;;;;;;;;;5010290;28;20085;-74
2021/12/31 14:17:54;;;;;;;4.97;2.17;;;;;;;;;;5010506;28;20073;-65
2021/12/31 14:20:25;;;;;;;5.90;2.63;;;;;;;;;;5010943;28;20438;-63
2021/12/31 14:22:53;;;;;;;5.03;2.30;;;;;;;;;;5010449;28;20573;-69
2021/12/31 14:25:25;;;;;;;4.97;2.40;;;;;;;;;;5010893;28;20455;-67
2021/12/31 14:27:54;;;;;;;7.68;3.40;;;;;;;;;;5010502;28;20054;-66
2021/12/31 14:30:22;;;;;;;5.72;1.90;;;;;;;;;;5011097;28;20049;-67
2021/12/31 14:32:49;;;;;;;2.80;1.58;;;;;;;;;;5011434;28;20054;-66
2021/12/31 14:35:21;;;;;;;3.65;1.80;;;;;;;;;;5012185;28;20394;-70
2021/12/31 14:37:50;;;;;;;3.83;1.60;;;;;;;;;;5013015;28;20061;-70
2021/12/31 14:40:19;;;;;;;4.07;1.77;;;;;;;;;;5011409;28;20081;-69
2021/12/31 14:42:48;;;;;;;3.80;1.73;;;;;;;;;;5010097;28;20140;-65
2021/12/31 14:45:16;;;;;;;3.58;1.30;;;;;;;;;;5010611;28;20052;-69
2021/12/31 14:47:45;;;;;;;3.08;1.50;;;;;;;;;;5014299;28;20414;-66
2021/12/31 14:50:14;;;;;;;2.58;1.33;;;;;;;;;;5014442;28;20407;-65
2021/12/31 14:52:43;;;;;;;5.45;2.70;;;;;;;;;;5014027;28;20054;-69
2021/12/31 14:55:13;;;;;;;2.88;1.20;;;;;;;;;;5014311;28;20054;-66